Salona — J8B4719 — position and weather

sailwx.info

Track history (hours):
 
Tides and Currents Weather Stations Pressure Air Temp Water Temp Dewpoint Dewpoint Depression Visibility Wind Speed Wind Dir Waves Ship Positions

Salona

Last reported at 2015-Feb-09 20:20 UTC. Time now 2015-Mar-04 16:46 UTC.
Position N 37°04' E 013°53'.
Warning: this ship's position is 22 days out of date.

Length 70 m; draft 2.7 m.

Type: Cargo ship. MMSI: 376099000.

Date/timePositionNaut miles runAvg speedWind from/ knotsBaromVisibWave heightAir tempDewpointWater temp
2015-Feb-09 20:20N 37°04' E 013°53'5 6.6
2015-Feb-09 19:33N 37°02' E 013°59'7 6.9
2015-Feb-09 18:33N 36°59' E 014°07'7 6.9
2015-Feb-09 17:33N 36°56' E 014°14'6 6.5
2015-Feb-09 16:33N 36°52' E 014°21'6 5.8
2015-Feb-09 15:26N 36°48' E 014°27'92 2.3
2015-Feb-07 23:27N 38°04' E 015°33'7 7.8
2015-Feb-07 22:33N 38°11' E 015°35'  
2015-Feb-03 13:32N 38°10' E 015°37'7 6.4
2015-Feb-03 12:31N 38°04' E 015°36'  
Track history (hours):
 
Tides and Currents Weather Stations Pressure Air Temp Water Temp Dewpoint Dewpoint Depression Visibility Wind Speed Wind Dir Waves Ship Positions

Salona

Last reported at 2015-Feb-09 20:20 UTC. Time now 2015-Mar-04 16:46 UTC.
Position N 37°04' E 013°53'.
Warning: this ship's position is 22 days out of date.

Length 70 m; draft 2.7 m.

Type: Cargo ship. MMSI: 376099000.

Date/timePositionNaut miles runAvg speedWind from/ knotsBaromVisibWave heightAir tempDewpointWater temp
2015-Feb-09 20:20N 37°04' E 013°53'5 6.6
2015-Feb-09 19:33N 37°02' E 013°59'7 6.9
2015-Feb-09 18:33N 36°59' E 014°07'7 6.9
2015-Feb-09 17:33N 36°56' E 014°14'6 6.5
2015-Feb-09 16:33N 36°52' E 014°21'6 5.8
2015-Feb-09 15:26N 36°48' E 014°27'92 2.3
2015-Feb-07 23:27N 38°04' E 015°33'7 7.8
2015-Feb-07 22:33N 38°11' E 015°35'  
2015-Feb-03 13:32N 38°10' E 015°37'7 6.4
2015-Feb-03 12:31N 38°04' E 015°36'  

Dump ship's entire track history